createdAt,value
2022-09-21T00:01:33.237Z,0.60
2022-09-21T00:04:03.224Z,0.57
2022-09-21T00:06:33.810Z,0.40
2022-09-21T00:09:04.097Z,0.40
2022-09-21T00:11:34.011Z,0.52
2022-09-21T00:14:07.391Z,0.45
2022-09-21T00:16:35.626Z,0.43
2022-09-21T00:19:04.790Z,0.50
2022-09-21T00:21:33.258Z,0.73
2022-09-21T00:24:02.738Z,0.60
2022-09-21T00:26:31.002Z,0.57
2022-09-21T00:29:01.142Z,0.70
2022-09-21T00:31:30.207Z,0.75
2022-09-21T00:34:00.244Z,0.55
2022-09-21T00:36:28.657Z,0.40
2022-09-21T00:38:59.370Z,0.43
2022-09-21T00:41:29.280Z,0.30
2022-09-21T00:44:24.344Z,0.32
2022-09-21T00:46:55.702Z,0.40
2022-09-21T00:49:25.097Z,0.30
2022-09-21T00:51:53.457Z,0.30
2022-09-21T00:54:28.301Z,0.30
2022-09-21T00:56:59.956Z,0.30
2022-09-21T00:59:30.421Z,0.47
2022-09-21T01:01:59.394Z,0.50
2022-09-21T01:04:28.478Z,0.57
2022-09-21T01:06:59.533Z,0.30
2022-09-21T01:09:28.913Z,0.55
2022-09-21T01:11:59.480Z,0.68
2022-09-21T01:15:01.933Z,0.50
2022-09-21T01:17:38.798Z,0.20
2022-09-21T01:20:25.807Z,0.60
2022-09-21T01:23:09.157Z,0.45
2022-09-21T01:25:49.197Z,0.30
2022-09-21T01:28:52.531Z,0.57
2022-09-21T01:31:27.289Z,0.52
2022-09-21T01:34:01.339Z,0.50
2022-09-21T01:36:31.657Z,0.65
2022-09-21T01:39:06.296Z,1.05
2022-09-21T01:41:38.224Z,1.10
2022-09-21T01:44:14.357Z,1.17
2022-09-21T01:46:42.739Z,1.20
2022-09-21T01:49:15.519Z,1.10
2022-09-21T01:51:49.300Z,1.10
2022-09-21T01:54:24.198Z,1.30
2022-09-21T01:57:15.873Z,0.93
2022-09-21T01:59:56.235Z,0.80
2022-09-21T02:02:37.295Z,1.00
2022-09-21T02:05:06.693Z,0.70
2022-09-21T02:07:35.909Z,0.52
2022-09-21T02:10:06.965Z,0.60
2022-09-21T02:12:35.233Z,0.60
2022-09-21T02:15:03.748Z,0.60
2022-09-21T02:18:01.086Z,0.60
2022-09-21T02:20:34.429Z,0.47
2022-09-21T02:23:17.467Z,0.88
2022-09-21T02:26:06.892Z,0.70
2022-09-21T02:28:54.268Z,0.63
2022-09-21T02:31:34.549Z,0.70
2022-09-21T02:34:18.458Z,0.55
2022-09-21T02:37:17.985Z,0.60
2022-09-21T02:40:24.600Z,0.82
2022-09-21T02:42:59.465Z,0.85
2022-09-21T02:45:33.352Z,0.50
2022-09-21T02:48:13.347Z,0.68
2022-09-21T02:50:47.589Z,0.60
2022-09-21T02:55:51.989Z,0.40
2022-09-21T02:58:24.750Z,0.82
2022-09-21T03:00:55.239Z,0.43
2022-09-21T03:03:24.998Z,0.60
2022-09-21T03:05:54.935Z,0.60
2022-09-21T03:08:22.929Z,0.47
2022-09-21T03:10:50.967Z,0.60
2022-09-21T03:13:19.066Z,0.77
2022-09-21T03:15:47.433Z,0.32
2022-09-21T03:18:15.395Z,0.32
2022-09-21T03:20:48.737Z,0.30
2022-09-21T03:23:16.694Z,0.40
2022-09-21T03:25:48.221Z,0.50
2022-09-21T03:28:16.535Z,0.52
2022-09-21T03:30:44.443Z,0.50
2022-09-21T03:33:13.242Z,0.45
2022-09-21T03:35:42.287Z,0.70
2022-09-21T03:38:10.285Z,0.40
2022-09-21T03:40:38.334Z,0.20
2022-09-21T03:43:06.536Z,0.43
2022-09-21T03:45:34.662Z,0.30
2022-09-21T03:48:02.624Z,0.55
2022-09-21T03:50:30.657Z,0.30
2022-09-21T03:52:58.553Z,0.40
2022-09-21T03:55:26.807Z,0.70
2022-09-21T03:57:54.661Z,0.50
2022-09-21T04:00:22.650Z,0.30
2022-09-21T04:02:50.544Z,0.70
2022-09-21T04:05:18.777Z,0.40
2022-09-21T04:07:47.109Z,0.40
2022-09-21T04:10:22.100Z,0.55
2022-09-21T04:12:49.930Z,0.50
2022-09-21T04:15:19.823Z,0.30
2022-09-21T04:17:51.709Z,0.30
2022-09-21T04:20:21.066Z,0.60
2022-09-21T04:22:49.209Z,0.40
2022-09-21T04:25:17.248Z,0.50
2022-09-21T04:27:45.177Z,0.40
2022-09-21T04:30:15.464Z,0.45
2022-09-21T04:32:44.155Z,1.00
2022-09-21T04:35:12.110Z,1.15
2022-09-21T04:37:40.020Z,0.35
2022-09-21T04:40:09.209Z,0.63
2022-09-21T04:42:37.086Z,0.52
2022-09-21T04:45:10.111Z,0.60
2022-09-21T04:47:38.516Z,0.50
2022-09-21T04:50:07.794Z,0.30
2022-09-21T04:52:35.652Z,0.57
2022-09-21T04:55:04.356Z,0.50
2022-09-21T04:57:32.388Z,0.52
2022-09-21T05:00:00.324Z,0.57
2022-09-21T05:02:28.271Z,0.90
2022-09-21T05:04:56.118Z,0.43
2022-09-21T05:07:24.065Z,0.57
2022-09-21T05:10:04.051Z,0.88
2022-09-21T05:12:33.497Z,0.50
2022-09-21T05:15:02.103Z,0.60
2022-09-21T05:17:29.949Z,0.43
2022-09-21T05:19:58.174Z,0.82
2022-09-21T05:22:26.083Z,0.70
2022-09-21T05:24:53.973Z,1.00
2022-09-21T05:27:21.995Z,1.02
2022-09-21T05:29:50.143Z,0.70
2022-09-21T05:32:26.424Z,0.77
2022-09-21T05:35:13.476Z,0.88
2022-09-21T05:37:56.300Z,0.65
2022-09-21T05:40:24.500Z,0.75
2022-09-21T05:42:52.731Z,0.52
2022-09-21T05:45:21.842Z,0.77
2022-09-21T05:48:07.245Z,0.80
2022-09-21T05:50:41.442Z,0.65
2022-09-21T05:56:10.506Z,0.88
2022-09-21T05:58:57.310Z,1.20
2022-09-21T06:01:46.195Z,1.23
2022-09-21T06:04:14.319Z,0.90
2022-09-21T06:06:42.189Z,0.93
2022-09-21T06:09:10.110Z,0.63
2022-09-21T06:11:37.979Z,0.60
2022-09-21T06:14:06.559Z,0.40
2022-09-21T06:16:41.544Z,0.47
2022-09-21T06:19:13.739Z,0.60
2022-09-21T06:21:41.801Z,0.40
2022-09-21T06:24:10.013Z,0.50
2022-09-21T06:26:38.616Z,0.65
2022-09-21T06:29:06.459Z,0.80
2022-09-21T06:31:34.908Z,0.60
2022-09-21T06:34:03.114Z,0.38
2022-09-21T06:36:31.310Z,0.47
2022-09-21T06:38:59.168Z,0.60
2022-09-21T06:41:26.989Z,0.45
2022-09-21T06:43:56.291Z,0.43
2022-09-21T06:46:24.605Z,0.60
2022-09-21T06:48:52.668Z,1.20
2022-09-21T06:51:21.873Z,0.60
2022-09-21T06:53:54.197Z,0.70
2022-09-21T06:56:22.114Z,0.70
2022-09-21T06:58:50.470Z,0.85
2022-09-21T07:01:19.825Z,0.75
2022-09-21T07:03:52.296Z,0.80
2022-09-21T07:06:20.689Z,0.50
2022-09-21T07:11:36.675Z,0.50
2022-09-21T07:14:05.616Z,0.47
2022-09-21T07:16:33.846Z,0.90
2022-09-21T07:19:10.304Z,0.68
2022-09-21T07:21:39.317Z,0.50
2022-09-21T07:24:11.948Z,0.75
2022-09-21T07:26:40.885Z,0.52
2022-09-21T07:29:08.876Z,0.40
2022-09-21T07:31:37.182Z,0.75
2022-09-21T07:34:05.092Z,0.50
2022-09-21T07:36:32.977Z,0.70
2022-09-21T07:39:00.913Z,0.60
2022-09-21T07:41:29.066Z,0.60
2022-09-21T07:43:56.924Z,0.98
2022-09-21T07:46:25.192Z,0.60
2022-09-21T07:48:57.613Z,0.50
2022-09-21T07:51:25.572Z,0.52
2022-09-21T07:53:56.977Z,0.50
2022-09-21T07:56:25.664Z,0.50
2022-09-21T07:59:22.553Z,0.60
2022-09-21T08:01:50.466Z,0.60
2022-09-21T08:04:18.425Z,0.40
2022-09-21T08:06:46.264Z,0.57
2022-09-21T08:09:14.102Z,0.50
2022-09-21T08:11:44.303Z,0.30
2022-09-21T08:14:23.690Z,0.30
2022-09-21T08:16:53.932Z,0.28
2022-09-21T08:19:24.199Z,0.38
2022-09-21T08:21:57.133Z,0.40
2022-09-21T08:24:28.716Z,0.35
2022-09-21T08:26:57.000Z,0.60
2022-09-21T08:29:25.984Z,0.30
2022-09-21T08:31:53.886Z,0.40
2022-09-21T08:34:24.129Z,0.43
2022-09-21T08:36:55.512Z,0.30
2022-09-21T08:39:24.086Z,0.40
2022-09-21T08:42:10.858Z,0.30
2022-09-21T08:44:56.408Z,0.40
2022-09-21T08:47:40.811Z,0.40
2022-09-21T08:52:52.870Z,0.50
2022-09-21T08:55:21.604Z,0.60
2022-09-21T08:57:49.511Z,0.65
2022-09-21T09:00:19.053Z,0.38
2022-09-21T09:03:20.578Z,0.50
2022-09-21T09:06:10.717Z,0.28
2022-09-21T09:09:03.980Z,0.50
2022-09-21T09:11:44.809Z,0.35
2022-09-21T09:14:30.710Z,0.20
2022-09-21T09:17:10.409Z,0.30
2022-09-21T09:19:47.591Z,0.30
2022-09-21T09:22:23.798Z,0.45
2022-09-21T09:24:55.478Z,0.52
2022-09-21T09:27:35.083Z,0.47
2022-09-21T09:30:26.278Z,0.45
2022-09-21T09:33:01.314Z,0.20
2022-09-21T09:35:33.383Z,0.47
2022-09-21T09:38:28.035Z,0.47
2022-09-21T09:43:41.313Z,0.35
2022-09-21T09:46:29.819Z,0.40
2022-09-21T09:49:18.857Z,0.30
2022-09-21T09:51:47.895Z,0.43
2022-09-21T09:54:17.851Z,0.50
2022-09-21T09:56:45.803Z,0.50
2022-09-21T09:59:18.932Z,0.55
2022-09-21T10:01:47.527Z,0.40
2022-09-21T10:04:17.789Z,0.60
2022-09-21T10:06:47.014Z,0.70
2022-09-21T10:09:28.958Z,0.45
2022-09-21T10:12:08.084Z,0.25
2022-09-21T10:14:37.733Z,0.25
2022-09-21T10:17:08.412Z,0.30
2022-09-21T10:19:38.277Z,0.40
2022-09-21T10:22:06.277Z,0.30
2022-09-21T10:24:40.937Z,0.52
2022-09-21T10:27:16.337Z,0.40
2022-09-21T10:29:49.019Z,0.38
2022-09-21T10:32:16.912Z,0.40
2022-09-21T10:35:05.342Z,0.57
2022-09-21T10:37:54.580Z,0.40
2022-09-21T10:40:22.866Z,0.60
2022-09-21T10:42:59.494Z,0.63
2022-09-21T10:45:31.926Z,0.47
2022-09-21T10:48:08.265Z,0.60
2022-09-21T10:50:41.894Z,0.55
2022-09-21T10:53:09.751Z,0.40
2022-09-21T10:55:44.032Z,0.40
2022-09-21T10:58:20.785Z,0.32
2022-09-21T11:00:52.150Z,0.55
2022-09-21T11:03:51.579Z,0.50
2022-09-21T11:06:29.789Z,0.70
2022-09-21T11:09:13.136Z,0.40
2022-09-21T11:11:53.370Z,0.60
2022-09-21T11:14:30.221Z,0.47
2022-09-21T11:17:07.789Z,0.50
2022-09-21T11:19:43.198Z,0.70
2022-09-21T11:22:32.578Z,0.50
2022-09-21T11:25:15.263Z,0.60
2022-09-21T11:27:49.444Z,0.38
2022-09-21T11:32:55.326Z,0.38
2022-09-21T11:35:42.286Z,0.40
2022-09-21T11:38:18.285Z,0.63
2022-09-21T11:40:58.030Z,0.50
2022-09-21T11:43:25.840Z,0.47
2022-09-21T11:46:08.995Z,0.60
2022-09-21T11:48:55.128Z,0.25
2022-09-21T11:51:38.896Z,0.43
2022-09-21T11:54:36.701Z,0.20
2022-09-21T11:57:19.223Z,0.30
2022-09-21T12:00:04.326Z,0.28
2022-09-21T12:03:06.864Z,0.35
2022-09-21T12:05:58.008Z,0.30
2022-09-21T12:08:31.952Z,0.30
2022-09-21T12:14:03.393Z,0.20
2022-09-21T12:16:56.139Z,0.40
2022-09-21T12:19:42.141Z,0.30
2022-09-21T12:22:17.547Z,0.30
2022-09-21T12:24:51.027Z,0.20
2022-09-21T12:27:30.103Z,0.30
2022-09-21T12:30:06.937Z,0.30
2022-09-21T12:32:57.672Z,0.40
2022-09-21T12:35:33.757Z,0.40
2022-09-21T12:38:10.691Z,0.20
2022-09-21T12:40:47.491Z,0.28
2022-09-21T12:43:41.033Z,0.35
2022-09-21T12:46:32.334Z,0.30
2022-09-21T12:49:08.648Z,0.30
2022-09-21T12:51:46.626Z,0.15
2022-09-21T12:54:28.633Z,0.50
2022-09-21T12:57:38.092Z,0.38
2022-09-21T13:00:18.330Z,0.22
2022-09-21T13:03:08.367Z,0.20
2022-09-21T13:06:12.621Z,0.20
2022-09-21T13:08:45.160Z,0.20
2022-09-21T13:11:13.971Z,0.28
2022-09-21T13:13:56.085Z,0.28
2022-09-21T13:16:39.072Z,0.30
2022-09-21T13:19:13.243Z,0.20
2022-09-21T13:21:41.811Z,0.30
2022-09-21T13:24:27.332Z,0.40
2022-09-21T13:27:08.889Z,0.43
2022-09-21T13:29:40.206Z,0.30
2022-09-21T13:32:24.064Z,0.30
2022-09-21T13:35:33.877Z,0.30
2022-09-21T13:38:38.321Z,0.15
2022-09-21T13:44:04.995Z,0.30
2022-09-21T13:46:36.122Z,0.65
2022-09-21T13:49:16.208Z,0.45
2022-09-21T13:52:06.109Z,0.40
2022-09-21T13:55:00.413Z,0.68
2022-09-21T13:57:56.612Z,0.38
2022-09-21T14:00:59.224Z,0.20
2022-09-21T14:03:49.906Z,0.28
2022-09-21T14:06:25.060Z,0.35
2022-09-21T14:09:02.472Z,0.40
2022-09-21T14:11:44.554Z,0.30
2022-09-21T14:14:13.042Z,0.28
2022-09-21T14:16:47.701Z,0.30
2022-09-21T14:19:15.680Z,0.30
2022-09-21T14:22:07.881Z,0.65
2022-09-21T14:24:36.895Z,0.50
2022-09-21T14:27:13.642Z,0.50
2022-09-21T14:29:51.051Z,0.40
2022-09-21T14:32:23.685Z,0.40
2022-09-21T14:34:56.748Z,1.00
2022-09-21T14:37:27.394Z,0.30
2022-09-21T14:39:56.712Z,0.30
2022-09-21T14:42:29.451Z,0.55
2022-09-21T14:45:03.322Z,0.40
2022-09-21T14:48:00.570Z,0.30
2022-09-21T14:50:45.402Z,0.30
2022-09-21T14:53:29.735Z,0.30
2022-09-21T14:59:21.414Z,0.50
2022-09-21T15:02:03.622Z,0.15
2022-09-21T15:04:57.811Z,0.20
2022-09-21T15:07:58.342Z,0.30
2022-09-21T15:10:53.044Z,0.20
2022-09-21T15:14:20.301Z,0.38
2022-09-21T15:16:52.085Z,0.22
2022-09-21T15:19:27.391Z,0.50
2022-09-21T15:22:13.008Z,0.50
2022-09-21T15:24:50.529Z,0.60
2022-09-21T15:27:20.426Z,0.40
2022-09-21T15:29:51.883Z,0.40
2022-09-21T15:32:24.505Z,0.55
2022-09-21T15:35:02.412Z,0.22
2022-09-21T15:37:36.799Z,0.50
2022-09-21T15:40:09.153Z,0.30
2022-09-21T15:43:01.275Z,0.20
2022-09-21T15:45:34.026Z,0.20
2022-09-21T15:48:02.847Z,0.43
2022-09-21T15:50:31.090Z,0.30
2022-09-21T15:53:05.891Z,0.40
2022-09-21T15:55:34.005Z,0.40
2022-09-21T15:58:04.566Z,0.30
2022-09-21T16:00:40.173Z,0.40
2022-09-21T16:03:20.523Z,0.77
2022-09-21T16:05:56.402Z,0.35
2022-09-21T16:08:36.538Z,0.40
2022-09-21T16:11:18.141Z,0.40
2022-09-21T16:14:17.519Z,0.50
2022-09-21T16:17:06.686Z,0.85
2022-09-21T16:19:42.678Z,0.40
2022-09-21T16:22:17.818Z,0.40
2022-09-21T16:24:55.820Z,0.52
2022-09-21T16:27:27.566Z,0.88
2022-09-21T16:29:57.079Z,0.47
2022-09-21T16:32:32.129Z,0.32
2022-09-21T16:35:31.636Z,0.55
2022-09-21T16:37:59.748Z,0.50
2022-09-21T16:40:29.317Z,0.38
2022-09-21T16:42:57.528Z,0.20
2022-09-21T16:45:31.950Z,0.50
2022-09-21T16:48:00.986Z,0.30
2022-09-21T16:50:31.481Z,0.30
2022-09-21T16:52:59.606Z,0.52
2022-09-21T16:55:30.924Z,0.40
2022-09-21T16:57:59.511Z,0.50
2022-09-21T17:00:31.010Z,0.57
2022-09-21T17:02:58.934Z,0.50
2022-09-21T17:05:26.793Z,0.55
2022-09-21T17:07:56.496Z,0.32
2022-09-21T17:10:32.979Z,0.52
2022-09-21T17:13:01.288Z,0.30
2022-09-21T17:15:31.340Z,0.40
2022-09-21T17:17:59.970Z,0.30
2022-09-21T17:20:34.680Z,0.50
2022-09-21T17:23:03.458Z,0.30
2022-09-21T17:25:33.090Z,0.30
2022-09-21T17:28:02.890Z,0.70
2022-09-21T17:30:30.840Z,0.50
2022-09-21T17:32:59.038Z,1.00
2022-09-21T17:35:31.949Z,0.80
2022-09-21T17:38:01.382Z,0.80
2022-09-21T17:40:32.784Z,0.90
2022-09-21T17:43:24.262Z,0.68
2022-09-21T17:46:37.694Z,0.93
2022-09-21T17:49:13.437Z,0.50
2022-09-21T17:54:33.903Z,0.63
2022-09-21T17:57:17.741Z,0.60
2022-09-21T18:00:01.789Z,0.63
2022-09-21T18:02:34.535Z,0.90
2022-09-21T18:05:14.519Z,0.68
2022-09-21T18:07:43.617Z,0.80
2022-09-21T18:10:15.192Z,0.60
2022-09-21T18:12:54.712Z,0.70
2022-09-21T18:15:36.697Z,0.80
2022-09-21T18:18:12.367Z,0.57
2022-09-21T18:21:05.513Z,0.90
2022-09-21T18:23:56.903Z,0.50
2022-09-21T18:26:26.536Z,0.63
2022-09-21T18:28:58.359Z,0.50
2022-09-21T18:31:55.564Z,0.80
2022-09-21T18:34:55.362Z,0.77
2022-09-21T18:37:38.379Z,1.02
2022-09-21T18:40:22.225Z,0.70
2022-09-21T18:43:12.492Z,0.73
2022-09-21T18:45:48.379Z,0.90
2022-09-21T18:48:51.109Z,1.02
2022-09-21T18:51:54.847Z,0.80
2022-09-21T18:54:28.974Z,0.90
2022-09-21T18:56:57.425Z,0.82
2022-09-21T18:59:30.984Z,0.90
2022-09-21T19:02:01.118Z,0.73
2022-09-21T19:04:30.056Z,0.77
2022-09-21T19:07:13.884Z,0.60
2022-09-21T19:10:01.016Z,0.57
2022-09-21T19:12:54.857Z,0.68
2022-09-21T19:16:06.715Z,0.90
2022-09-21T19:19:03.331Z,0.90
2022-09-21T19:22:29.353Z,0.50
2022-09-21T19:25:21.962Z,0.65
2022-09-21T19:28:00.009Z,0.70
2022-09-21T19:30:31.547Z,0.52
2022-09-21T19:33:11.128Z,0.57
2022-09-21T19:35:52.409Z,0.30
2022-09-21T19:38:23.187Z,0.70
2022-09-21T19:41:08.593Z,0.80
2022-09-21T19:43:48.746Z,0.40
2022-09-21T19:46:46.756Z,0.60
2022-09-21T19:49:21.820Z,0.60
2022-09-21T19:51:54.291Z,0.52
2022-09-21T19:54:47.104Z,0.70
2022-09-21T19:57:38.383Z,0.70
2022-09-21T20:00:11.863Z,1.00
2022-09-21T20:06:54.754Z,1.05
2022-09-21T20:09:45.468Z,0.75
2022-09-21T20:12:43.290Z,0.70
2022-09-21T20:15:30.355Z,0.90
2022-09-21T20:18:23.628Z,1.00
2022-09-21T20:20:55.663Z,0.90
2022-09-21T20:26:06.757Z,0.85
2022-09-21T20:28:43.717Z,1.00
2022-09-21T20:31:17.655Z,1.25
2022-09-21T20:33:52.648Z,0.70
2022-09-21T20:36:31.210Z,0.80
2022-09-21T20:39:05.090Z,0.80
2022-09-21T20:41:38.349Z,0.80
2022-09-21T20:44:14.806Z,0.82
2022-09-21T20:46:46.068Z,0.98
2022-09-21T20:49:17.089Z,0.90
2022-09-21T20:51:50.938Z,0.80
2022-09-21T20:54:19.786Z,0.60
2022-09-21T20:56:47.591Z,0.70
2022-09-21T20:59:15.482Z,0.80
2022-09-21T21:01:43.538Z,0.40
2022-09-21T21:04:13.231Z,0.57
2022-09-21T21:06:41.308Z,0.43
2022-09-21T21:09:09.145Z,0.95
2022-09-21T21:11:37.009Z,0.68
2022-09-21T21:14:05.006Z,0.82
2022-09-21T21:16:33.210Z,0.68
2022-09-21T21:19:01.443Z,1.20
2022-09-21T21:21:29.366Z,0.80
2022-09-21T21:24:15.569Z,0.75
2022-09-21T21:27:01.188Z,0.40
2022-09-21T21:29:32.116Z,0.43
2022-09-21T21:32:00.456Z,0.55
2022-09-21T21:34:28.444Z,0.65
2022-09-21T21:36:56.292Z,0.40
2022-09-21T21:39:24.181Z,0.40
2022-09-21T21:41:51.952Z,0.77
2022-09-21T21:44:19.927Z,0.80
2022-09-21T21:46:52.004Z,0.40
2022-09-21T21:49:23.646Z,0.50
2022-09-21T21:51:53.223Z,0.60
2022-09-21T21:54:26.375Z,0.40
2022-09-21T21:56:54.591Z,0.47
2022-09-21T21:59:22.433Z,0.30
2022-09-21T22:01:50.394Z,0.57
2022-09-21T22:04:18.244Z,0.50
2022-09-21T22:06:46.141Z,0.50
2022-09-21T22:09:14.864Z,0.50
2022-09-21T22:11:43.066Z,0.38
2022-09-21T22:14:11.803Z,0.50
2022-09-21T22:16:40.218Z,0.35
2022-09-21T22:19:09.163Z,0.70
2022-09-21T22:21:53.237Z,0.40
2022-09-21T22:24:22.570Z,0.73
2022-09-21T22:26:50.778Z,0.57
2022-09-21T22:29:18.620Z,0.47
2022-09-21T22:31:49.220Z,0.60
2022-09-21T22:34:17.467Z,0.75
2022-09-21T22:36:45.516Z,0.70
2022-09-21T22:39:13.884Z,0.65
2022-09-21T22:41:42.984Z,0.60
2022-09-21T22:44:11.159Z,0.57
2022-09-21T22:46:39.269Z,0.60
2022-09-21T22:49:07.825Z,0.95
2022-09-21T22:51:36.270Z,0.90
2022-09-21T22:54:04.609Z,0.98
2022-09-21T22:56:36.636Z,0.77
2022-09-21T22:59:05.877Z,0.90
2022-09-21T23:01:38.489Z,0.77
2022-09-21T23:04:12.401Z,0.98
2022-09-21T23:06:44.235Z,0.75
2022-09-21T23:09:18.800Z,0.90
2022-09-21T23:11:53.575Z,1.20
2022-09-21T23:14:23.109Z,0.80
2022-09-21T23:16:51.001Z,0.55
2022-09-21T23:19:19.083Z,0.70
2022-09-21T23:21:53.193Z,0.60
2022-09-21T23:24:22.050Z,0.82
2022-09-21T23:26:51.786Z,0.88
2022-09-21T23:29:19.878Z,1.00
2022-09-21T23:31:59.592Z,0.80
2022-09-21T23:34:27.461Z,0.80
2022-09-21T23:36:55.383Z,0.77
2022-09-21T23:39:23.227Z,0.80
2022-09-21T23:41:51.414Z,0.70
2022-09-21T23:44:19.310Z,0.73
2022-09-21T23:46:47.247Z,0.95
2022-09-21T23:49:15.076Z,0.60
2022-09-21T23:51:42.971Z,0.60
2022-09-21T23:54:11.050Z,0.57
2022-09-21T23:56:38.911Z,0.80
2022-09-21T23:59:07.140Z,0.45
